Time;durP1;ratioP1;P1;durP2;ratioP2;P2;SDS_P1;SDS_P2;PMS_P1;PMS_P2;Temp;Humidity;BMP_temperature;BMP_pressure;BME280_temperature;BME280_humidity;BME280_pressure;Samples;Min_cycle;Max_cycle;Signal;HPM_P1;HPM_P2
2023/09/10 00:00:37;;;;;;;20.08;18.05;;;;;;;17.88;90.36;101596.53;4883264;28;20095;-76
2023/09/10 00:03:02;;;;;;;22.92;17.40;;;;;;;17.87;90.23;101597.63;4896938;28;20052;-75
2023/09/10 00:05:31;;;;;;;18.63;16.63;;;;;;;17.87;90.94;101597.63;4904335;28;20036;-75
2023/09/10 00:07:58;;;;;;;20.20;17.70;;;;;;;17.85;92.21;101591.72;4880948;28;20115;-77
2023/09/10 00:10:24;;;;;;;18.58;16.55;;;;;;;17.84;92.19;101600.94;4880948;28;20048;-73
2023/09/10 00:12:49;;;;;;;17.95;15.90;;;;;;;17.84;91.62;101606.38;4882476;28;20044;-74
2023/09/10 00:15:15;;;;;;;20.02;17.58;;;;;;;17.85;91.57;101607.97;4897443;28;20048;-75
2023/09/10 00:17:40;;;;;;;18.73;16.70;;;;;;;17.84;91.71;101611.78;4898227;28;20079;-75
2023/09/10 00:20:07;;;;;;;19.10;15.63;;;;;;;17.85;92.13;101605.25;4879367;28;20124;-74
2023/09/10 00:22:34;;;;;;;18.65;16.73;;;;;;;17.84;92.08;101611.78;4882884;28;20050;-76
2023/09/10 00:24:59;;;;;;;20.15;18.13;;;;;;;17.80;92.44;101606.16;4882266;28;20127;-73
2023/09/10 00:27:25;;;;;;;16.67;14.88;;;;;;;17.81;91.87;101609.66;4900918;28;20032;-75
2023/09/10 00:29:51;;;;;;;18.65;16.27;;;;;;;17.82;91.86;101605.88;4893530;28;20052;-75
2023/09/10 00:32:16;;;;;;;17.50;15.70;;;;;;;17.82;91.96;101608.56;4882431;28;20044;-77
2023/09/10 00:34:42;;;;;;;19.08;17.05;;;;;;;17.79;91.26;101604.53;4896089;28;20079;-76
2023/09/10 00:37:08;;;;;;;19.20;17.25;;;;;;;17.79;91.32;101603.75;4880554;28;20052;-76
2023/09/10 00:39:33;;;;;;;18.13;16.23;;;;;;;17.78;91.68;101602.13;4898718;28;20059;-76
2023/09/10 00:41:59;;;;;;;19.77;15.63;;;;;;;17.76;91.36;101599.72;4901408;28;20048;-76
2023/09/10 00:44:26;;;;;;;18.73;16.90;;;;;;;17.76;91.54;101607.06;4884270;28;20043;-75
2023/09/10 00:46:53;;;;;;;20.88;16.48;;;;;;;17.74;91.41;101608.13;4902984;28;20036;-74
2023/09/10 00:49:19;;;;;;;19.90;17.38;;;;;;;17.73;91.41;101611.13;4907927;28;20032;-76
2023/09/10 00:51:47;;;;;;;19.13;17.13;;;;;;;17.69;91.78;101605.50;4904323;28;20052;-75
2023/09/10 00:54:15;;;;;;;17.77;15.73;;;;;;;17.69;91.60;101610.13;4890503;28;20110;-75
2023/09/10 00:56:40;;;;;;;22.40;19.98;;;;;;;17.67;92.10;101613.09;4884641;28;20047;-77
2023/09/10 00:59:08;;;;;;;20.52;15.65;;;;;;;17.66;91.91;101606.06;4899691;28;20548;-76
2023/09/10 01:01:35;;;;;;;16.35;14.57;;;;;;;17.65;91.91;101609.09;4884103;28;20040;-74
2023/09/10 01:04:01;;;;;;;20.95;18.75;;;;;;;17.63;92.22;101606.69;4900753;28;20040;-76
2023/09/10 01:06:26;;;;;;;18.75;15.40;;;;;;;17.62;91.59;101602.38;4880674;28;20040;-75
2023/09/10 01:08:52;;;;;;;20.92;17.95;;;;;;;17.62;92.07;101607.78;4881112;28;20051;-74
2023/09/10 01:11:26;;;;;;;21.77;18.00;;;;;;;17.60;92.12;101606.44;4889385;28;20044;-74
2023/09/10 01:14:04;;;;;;;20.92;18.73;;;;;;;17.60;91.83;101607.25;4900960;28;20821;-73
2023/09/10 01:16:34;;;;;;;;;;;;;;;17.59;92.22;101604.84;4885826;28;20486;-73
2023/09/10 01:19:07;;;;;;;18.88;16.88;;;;;;;17.56;91.52;101606.25;4899674;28;20400;-74
2023/09/10 01:21:55;;;;;;;21.58;19.25;;;;;;;17.57;92.09;101598.94;4895879;28;20244;-76
2023/09/10 01:24:42;;;;;;;21.42;19.15;;;;;;;17.56;91.98;101600.84;4896835;28;20036;-74
2023/09/10 01:27:08;;;;;;;22.88;20.02;;;;;;;17.52;92.31;101593.59;4884463;28;20047;-73
2023/09/10 01:29:33;;;;;;;22.80;19.60;;;;;;;17.49;91.56;101600.41;4896446;28;20056;-74
2023/09/10 01:32:07;;;;;;;28.50;25.40;;;;;;;17.50;91.63;101604.72;4887210;28;20067;-73
2023/09/10 01:34:38;;;;;;;28.67;24.27;;;;;;;17.47;92.31;101591.75;4905041;28;20267;-73
2023/09/10 01:37:15;;;;;;;28.88;23.67;;;;;;;17.45;92.37;101612.91;4886051;28;20039;-73
2023/09/10 01:39:49;;;;;;;30.80;27.13;;;;;;;17.44;92.65;101611.31;4893854;28;20086;-73
2023/09/10 01:42:16;;;;;;;26.95;22.17;;;;;;;17.42;92.47;101616.22;4889053;28;20044;-73
2023/09/10 01:44:42;;;;;;;23.08;17.83;;;;;;;17.42;92.05;101610.81;4903688;28;20031;-72
2023/09/10 01:47:07;;;;;;;27.92;24.55;;;;;;;17.39;92.53;101608.69;4900696;28;20101;-73
2023/09/10 01:49:33;;;;;;;34.03;25.25;;;;;;;17.37;92.22;101608.19;4911605;28;20571;-72
2023/09/10 01:52:00;;;;;;;24.10;20.00;;;;;;;17.36;91.87;101615.50;4880955;28;20055;-77
2023/09/10 01:54:26;;;;;;;24.55;19.77;;;;;;;17.34;92.13;101604.16;4883147;28;20150;-74
2023/09/10 01:56:51;;;;;;;24.13;19.48;;;;;;;17.35;92.05;101604.97;4885067;28;20425;-75
2023/09/10 01:59:17;;;;;;;26.42;22.77;;;;;;;17.33;92.27;101607.13;4902472;28;20135;-73
2023/09/10 02:01:43;;;;;;;30.05;24.45;;;;;;;17.32;92.01;101610.94;4881494;28;20119;-75
2023/09/10 02:04:09;;;;;;;28.48;24.48;;;;;;;17.30;92.40;101613.16;4900386;28;20116;-73
2023/09/10 02:06:35;;;;;;;26.25;21.13;;;;;;;17.31;92.33;101620.19;4886870;28;20123;-74
2023/09/10 02:09:01;;;;;;;33.78;28.05;;;;;;;17.30;92.03;101618.56;4889118;28;20036;-74
2023/09/10 02:11:27;;;;;;;34.83;28.15;;;;;;;17.30;92.62;101615.88;4900958;28;20097;-73
2023/09/10 02:13:54;;;;;;;36.97;30.83;;;;;;;17.31;92.94;101614.75;4905148;28;20052;-76
2023/09/10 02:16:20;;;;;;;33.00;27.48;;;;;;;17.29;92.53;101623.19;4898410;28;20043;-74
2023/09/10 02:18:46;;;;;;;36.28;31.67;;;;;;;17.29;92.32;101617.75;4886233;28;20568;-75
2023/09/10 02:21:12;;;;;;;34.92;29.40;;;;;;;17.29;92.22;101620.47;4905658;28;20109;-74
2023/09/10 02:23:42;;;;;;;37.90;29.55;;;;;;;17.28;92.31;101618.88;4884755;28;20584;-73
2023/09/10 02:26:11;;;;;;;39.90;31.73;;;;;;;17.27;92.68;101609.13;4901707;28;20071;-76
2023/09/10 02:28:37;;;;;;;34.28;26.85;;;;;;;17.25;92.25;101611.31;4901932;28;20409;-74
2023/09/10 02:31:05;;;;;;;41.67;33.72;;;;;;;17.25;92.66;101621.34;4879138;28;20128;-73
2023/09/10 02:33:31;;;;;;;36.60;30.58;;;;;;;17.22;92.74;101611.13;4901136;28;20779;-72
2023/09/10 02:35:56;;;;;;;44.58;35.42;;;;;;;17.16;93.06;101608.47;4898680;28;20036;-73
2023/09/10 02:38:24;;;;;;;43.08;31.65;;;;;;;17.16;92.80;101615.78;4904141;28;20656;-73
2023/09/10 02:40:51;;;;;;;41.78;33.72;;;;;;;17.14;92.87;101613.38;4900401;28;20111;-73
2023/09/10 02:43:17;;;;;;;42.40;33.10;;;;;;;17.13;92.45;101619.88;4906714;28;20044;-73
2023/09/10 02:45:42;;;;;;;34.17;28.38;;;;;;;17.13;92.82;101624.47;4883151;28;20966;-71
2023/09/10 02:48:08;;;;;;;;;;;;;;;17.11;92.77;101616.66;4883542;28;20035;-73
2023/09/10 02:50:34;;;;;;;43.92;31.85;;;;;;;17.08;92.82;101621.88;4895845;28;19923;-74
2023/09/10 02:53:00;;;;;;;;;;;;;;;17.08;92.77;101622.66;4898486;28;20504;-75
2023/09/10 02:55:25;;;;;;;51.60;37.10;;;;;;;17.03;92.65;101620.03;4879825;28;19930;-73
2023/09/10 02:57:51;;;;;;;;;;;;;;;17.02;93.25;101618.41;4879016;28;20421;-73
2023/09/10 03:00:19;;;;;;;50.92;38.17;;;;;;;16.98;93.38;101627.41;4882638;28;19919;-71
2023/09/10 03:02:45;;;;;;;49.15;36.50;;;;;;;16.96;93.01;101622.28;4883831;28;20039;-74
2023/09/10 03:05:10;;;;;;;;;;;;;;;16.96;93.06;101619.59;4897624;28;20086;-74
2023/09/10 03:07:36;;;;;;;53.47;39.05;;;;;;;16.91;92.99;101630.47;4898972;28;20388;-73
2023/09/10 03:10:03;;;;;;;48.55;37.92;;;;;;;16.89;92.96;101624.53;4897291;28;20068;-72
2023/09/10 03:12:29;;;;;;;48.67;36.97;;;;;;;16.87;92.99;101621.34;4895148;28;20053;-72
2023/09/10 03:14:57;;;;;;;47.55;35.85;;;;;;;16.87;92.79;101630.25;4885501;28;20040;-73
2023/09/10 03:17:25;;;;;;;65.45;46.72;;;;;;;16.86;93.06;101625.09;4898753;28;20036;-72
2023/09/10 03:19:50;;;;;;;61.83;46.95;;;;;;;16.85;93.19;101624.31;4878988;28;20047;-72
2023/09/10 03:22:17;;;;;;;77.60;51.53;;;;;;;16.84;93.77;101628.13;4882768;28;20068;-72
2023/09/10 03:24:43;;;;;;;79.22;50.92;;;;;;;16.87;94.51;101624.03;4882455;28;20632;-72
2023/09/10 03:27:09;;;;;;;68.93;45.38;;;;;;;16.86;94.26;101619.69;4899038;28;20754;-73
2023/09/10 03:29:36;;;;;;;69.45;46.22;;;;;;;16.88;94.33;101622.94;4882903;28;20056;-73
2023/09/10 03:32:07;;;;;;;79.40;55.17;;;;;;;16.89;94.38;101621.84;4899112;28;20036;-73
2023/09/10 03:34:34;;;;;;;70.68;48.65;;;;;;;16.88;94.18;101617.53;4877400;28;20049;-73
2023/09/10 03:37:00;;;;;;;69.18;47.50;;;;;;;16.90;93.74;101615.31;4895946;28;20094;-73
2023/09/10 03:39:27;;;;;;;70.65;50.75;;;;;;;16.89;93.40;101611.81;4867978;28;20130;-72
2023/09/10 03:41:53;;;;;;;82.32;53.90;;;;;;;16.89;93.98;101608.31;4899355;28;20433;-73
2023/09/10 03:44:19;;;;;;;71.88;49.13;;;;;;;16.90;93.83;101605.31;4873585;28;20051;-73
2023/09/10 03:46:45;;;;;;;73.07;49.58;;;;;;;16.89;93.62;101602.91;4900003;28;20115;-73
2023/09/10 03:49:11;;;;;;;77.78;50.47;;;;;;;16.88;94.06;101612.13;4862721;28;20033;-74
2023/09/10 03:51:38;;;;;;;86.82;54.65;;;;;;;16.85;94.26;101615.38;4909946;28;20147;-73
2023/09/10 03:54:04;;;;;;;77.07;51.08;;;;;;;16.84;94.45;101611.06;4880480;28;20055;-73
2023/09/10 03:56:30;;;;;;;80.28;53.63;;;;;;;16.82;94.10;101613.28;4881779;28;20044;-72
2023/09/10 03:58:56;;;;;;;;;;;;;;;16.82;94.43;101615.97;4902144;28;20738;-73
2023/09/10 04:01:21;;;;;;;75.47;52.45;;;;;;;16.77;94.42;101624.16;4902658;28;20427;-73
2023/09/10 04:03:47;;;;;;;;;;;;;;;16.77;94.26;101634.97;4923652;28;20064;-72
2023/09/10 04:06:15;;;;;;;83.18;49.53;;;;;;;16.76;94.37;101630.66;4897868;28;19915;-73
2023/09/10 04:08:41;;;;;;;;;;;;;;;16.76;94.33;101625.25;4852226;29;20025;-76
2023/09/10 04:11:08;;;;;;;85.47;52.08;;;;;;;16.73;94.60;101631.22;4902268;28;19919;-72
2023/09/10 04:13:36;;;;;;;87.60;52.58;;;;;;;16.72;94.57;101633.13;4898748;28;20094;-72
2023/09/10 04:16:02;;;;;;;106.80;66.97;;;;;;;16.71;94.43;101628.81;4886223;28;20744;-73
2023/09/10 04:18:27;;;;;;;;;;;;;;;16.73;94.62;101631.22;4890579;28;20091;-73
2023/09/10 04:20:54;;;;;;;84.28;50.08;;;;;;;16.68;94.50;101628.56;4884584;28;19923;-72
2023/09/10 04:23:20;;;;;;;102.60;63.33;;;;;;;16.64;94.82;101629.13;4895764;28;20036;-73
2023/09/10 04:25:49;;;;;;;98.82;58.08;;;;;;;16.62;94.73;101636.75;4902797;28;20047;-74
2023/09/10 04:28:15;;;;;;;96.82;56.20;;;;;;;16.60;94.65;101641.63;4873965;28;20481;-72
2023/09/10 04:30:42;;;;;;;111.40;65.45;;;;;;;16.58;94.80;101637.59;4892465;28;20513;-73
2023/09/10 04:33:08;;;;;;;104.15;65.32;;;;;;;16.57;94.87;101639.50;4890027;28;20051;-74
2023/09/10 04:35:33;;;;;;;;;;;;;;;16.57;94.96;101638.69;4874921;28;20047;-73
2023/09/10 04:37:59;;;;;;;112.07;62.83;;;;;;;16.55;95.68;101641.69;4888840;28;19923;-74
2023/09/10 04:40:24;;;;;;;90.07;51.85;;;;;;;16.55;95.25;101643.59;4900337;28;20512;-72
2023/09/10 04:42:52;;;;;;;;;;;;;;;16.56;95.94;101643.28;4902273;28;20040;-72
2023/09/10 04:45:17;;;;;;;105.18;63.45;;;;;;;16.53;95.31;101640.38;4904184;28;20447;-73
2023/09/10 04:47:43;;;;;;;;;;;;;;;16.54;95.72;101639.28;4890851;28;20089;-72
2023/09/10 04:50:12;;;;;;;95.53;56.20;;;;;;;16.50;95.63;101639.03;4886533;28;19941;-73
2023/09/10 04:52:38;;;;;;;101.75;62.08;;;;;;;16.50;95.27;101644.44;4898275;28;20044;-73
2023/09/10 04:55:03;;;;;;;;;;;;;;;16.53;95.18;101643.88;4879483;28;20803;-73
2023/09/10 04:57:29;;;;;;;90.63;53.60;;;;;;;16.52;94.97;101646.84;4905064;29;19919;-72
2023/09/10 04:59:55;;;;;;;;;;;;;;;16.58;95.86;101638.41;4884832;28;20118;-73
2023/09/10 05:02:20;;;;;;;118.60;64.75;;;;;;;16.58;96.46;101637.59;4904071;28;20412;-72
2023/09/10 05:04:46;;;;;;;140.55;71.72;;;;;;;16.63;97.58;101649.16;4888326;28;20032;-74
2023/09/10 05:07:11;;;;;;;139.35;73.80;;;;;;;16.64;97.68;101645.34;4906546;28;20033;-72
2023/09/10 05:09:37;;;;;;;123.68;63.75;;;;;;;16.69;97.48;101654.53;4876626;28;20040;-74
2023/09/10 05:12:04;;;;;;;113.40;61.15;;;;;;;16.73;97.53;101660.97;4873785;28;20050;-72
2023/09/10 05:14:29;;;;;;;177.13;82.85;;;;;;;16.79;97.89;101649.81;4902414;28;20028;-73
2023/09/10 05:16:55;;;;;;;157.57;78.97;;;;;;;16.82;98.75;101657.38;4905929;28;20078;-73
2023/09/10 05:19:23;;;;;;;129.73;69.35;;;;;;;16.86;98.74;101652.16;4908811;29;20634;-72
2023/09/10 05:21:49;;;;;;;120.50;64.55;;;;;;;16.90;98.85;101662.13;4874818;28;20063;-73
2023/09/10 05:24:15;;;;;;;128.25;62.28;;;;;;;16.96;98.97;101664.78;4902938;28;20178;-72
2023/09/10 05:26:42;;;;;;;119.20;59.35;;;;;;;17.02;98.95;101664.41;4895312;28;20548;-73
2023/09/10 05:29:08;;;;;;;117.80;60.78;;;;;;;17.08;99.26;101668.69;4902695;28;20039;-72
2023/09/10 05:31:34;;;;;;;130.73;65.20;;;;;;;17.13;99.39;101674.00;4892382;28;20215;-74
2023/09/10 05:34:00;;;;;;;119.85;56.03;;;;;;;17.19;99.51;101667.44;4871721;28;20126;-73
2023/09/10 05:36:27;;;;;;;133.18;61.72;;;;;;;17.26;99.18;101682.50;4896392;28;20127;-72
2023/09/10 05:38:53;;;;;;;131.15;62.38;;;;;;;17.30;99.25;101678.13;4903519;28;20477;-74
2023/09/10 05:41:19;;;;;;;150.73;70.32;;;;;;;17.34;99.54;101695.38;4876776;28;20040;-74
2023/09/10 05:43:44;;;;;;;138.25;66.63;;;;;;;17.35;99.47;101688.91;4901772;28;20028;-75
2023/09/10 05:46:10;;;;;;;122.40;62.33;;;;;;;17.39;99.40;101687.19;4865841;28;20048;-75
2023/09/10 05:48:36;;;;;;;125.55;60.83;;;;;;;17.43;99.28;101685.53;4886196;28;20024;-73
2023/09/10 05:51:02;;;;;;;135.05;63.88;;;;;;;17.46;98.96;101690.34;4892655;28;20984;-72
2023/09/10 05:53:29;;;;;;;136.20;65.20;;;;;;;17.44;99.10;101695.25;4911676;28;20098;-73
2023/09/10 05:55:56;;;;;;;119.95;58.35;;;;;;;17.47;99.00;101700.06;4869622;28;20106;-72
2023/09/10 05:58:22;;;;;;;116.75;60.55;;;;;;;17.47;98.66;101697.38;4906210;28;20037;-73
2023/09/10 06:00:51;;;;;;;131.77;63.75;;;;;;;17.48;98.61;101699.00;4872799;28;20040;-73
2023/09/10 06:03:17;;;;;;;106.22;55.95;;;;;;;17.49;98.37;101703.31;4869832;28;20486;-73
2023/09/10 06:05:42;;;;;;;108.78;55.15;;;;;;;17.49;98.44;101700.59;4908839;28;20070;-73
2023/09/10 06:08:08;;;;;;;106.07;52.20;;;;;;;17.49;98.18;101708.72;4885484;28;20442;-72
2023/09/10 06:10:34;;;;;;;121.65;58.70;;;;;;;17.48;97.85;101707.13;4903464;28;20048;-73
2023/09/10 06:12:59;;;;;;;125.50;60.53;;;;;;;17.44;98.17;101706.09;4894410;28;20045;-72
2023/09/10 06:15:27;;;;;;;90.30;47.47;;;;;;;17.46;98.20;101710.09;4952556;28;20040;-75
2023/09/10 06:17:53;;;;;;;99.85;48.50;;;;;;;17.49;98.47;101707.94;4885139;28;20036;-73
2023/09/10 06:20:19;;;;;;;89.82;44.50;;;;;;;17.52;98.03;101718.16;4906814;28;20043;-73
2023/09/10 06:22:45;;;;;;;114.03;56.35;;;;;;;17.52;98.20;101718.16;4876513;28;20037;-74
2023/09/10 06:25:10;;;;;;;103.50;52.80;;;;;;;17.53;98.13;101717.88;4867420;28;20044;-73
2023/09/10 06:27:36;;;;;;;95.40;45.75;;;;;;;17.54;98.16;101727.59;4904133;28;20028;-74
2023/09/10 06:30:02;;;;;;;96.07;49.97;;;;;;;17.57;98.13;101729.75;4890849;28;20052;-72
2023/09/10 06:32:28;;;;;;;106.25;53.33;;;;;;;17.58;98.12;101730.53;4907886;28;20054;-73
2023/09/10 06:34:53;;;;;;;96.03;47.95;;;;;;;17.59;97.91;101726.72;4883418;28;20045;-73
2023/09/10 06:37:20;;;;;;;88.63;44.25;;;;;;;17.60;97.58;101718.31;4903204;28;20050;-72
2023/09/10 06:39:45;;;;;;;98.80;47.50;;;;;;;17.63;97.01;101725.84;4899295;28;20032;-71
2023/09/10 06:42:13;;;;;;;100.35;45.55;;;;;;;17.66;96.72;101719.84;4886159;28;20103;-73
2023/09/10 06:44:43;;;;;;;88.20;43.97;;;;;;;17.68;96.62;101717.66;4871746;28;20040;-73
2023/09/10 06:47:09;;;;;;;103.88;48.17;;;;;;;17.70;96.34;101720.06;4903600;28;20091;-73
2023/09/10 06:49:35;;;;;;;111.82;50.78;;;;;;;17.72;96.44;101718.69;4895872;28;20041;-73
2023/09/10 06:52:01;;;;;;;97.82;45.33;;;;;;;17.73;96.15;101725.72;4898365;28;20040;-73
2023/09/10 06:54:26;;;;;;;107.22;50.22;;;;;;;17.77;95.74;101725.97;4902742;28;20044;-73
2023/09/10 06:56:52;;;;;;;85.78;40.40;;;;;;;17.82;95.47;101722.38;4891602;28;20139;-73
2023/09/10 06:59:18;;;;;;;109.18;48.22;;;;;;;17.82;95.37;101720.47;4878793;28;20044;-74
2023/09/10 07:01:44;;;;;;;110.10;50.38;;;;;;;17.86;95.32;101728.78;4886010;28;20563;-73
2023/09/10 07:04:17;;;;;;;112.72;50.80;;;;;;;17.89;95.25;101731.75;4900115;28;20044;-72
2023/09/10 07:06:47;;;;;;;111.40;49.17;;;;;;;17.93;95.53;101729.22;4909706;22;20659;-73
2023/09/10 07:09:16;;;;;;;103.63;48.47;;;;;;;17.94;94.50;101734.34;4917573;28;20031;-73
2023/09/10 07:11:41;;;;;;;110.38;49.28;;;;;;;17.98;94.39;101737.28;4922838;28;20031;-73
2023/09/10 07:14:08;;;;;;;108.75;49.60;;;;;;;18.01;94.68;101742.91;4920912;28;20039;-74
2023/09/10 07:16:34;;;;;;;105.90;48.25;;;;;;;18.06;94.95;101736.59;4905079;28;20036;-74
2023/09/10 07:19:01;;;;;;;92.90;41.28;;;;;;;18.09;94.49;101741.47;4902858;28;20031;-73
2023/09/10 07:21:28;;;;;;;89.65;44.42;;;;;;;18.11;94.68;101731.13;4885548;28;20051;-73
2023/09/10 07:23:55;;;;;;;102.32;46.90;;;;;;;18.14;94.39;101741.34;4906107;28;20027;-75
2023/09/10 07:26:23;;;;;;;106.40;46.95;;;;;;;18.14;94.56;101746.78;4907820;28;20044;-74
2023/09/10 07:28:48;;;;;;;102.00;46.60;;;;;;;18.14;94.34;101744.06;4911174;28;20401;-75
2023/09/10 07:31:14;;;;;;;89.68;44.20;;;;;;;18.16;93.89;101754.63;4899005;28;20040;-74
2023/09/10 07:33:39;;;;;;;99.15;48.20;;;;;;;18.19;93.73;101754.03;4917432;28;20039;-72
2023/09/10 07:36:05;;;;;;;91.18;46.25;;;;;;;18.19;93.36;101760.25;4872603;28;20040;-72
2023/09/10 07:38:31;;;;;;;104.70;49.45;;;;;;;18.22;93.80;101765.09;4901138;28;20039;-72
2023/09/10 07:40:56;;;;;;;99.57;49.50;;;;;;;18.23;93.62;101768.63;4867582;29;20048;-74
2023/09/10 07:43:23;;;;;;;81.30;42.08;;;;;;;18.26;93.32;101771.53;4898568;28;20044;-72
2023/09/10 07:45:49;;;;;;;101.78;49.17;;;;;;;18.29;93.79;101770.16;4910010;28;20060;-72
2023/09/10 07:48:15;;;;;;;95.20;50.17;;;;;;;18.28;92.92;101772.03;4888541;28;20130;-73
2023/09/10 07:50:42;;;;;;;97.30;48.53;;;;;;;18.32;92.86;101768.72;4905467;28;20028;-72
2023/09/10 07:53:07;;;;;;;92.00;48.25;;;;;;;18.35;92.96;101770.84;4918991;28;20502;-72
2023/09/10 07:55:36;;;;;;;91.68;47.15;;;;;;;18.37;92.50;101776.78;4900466;28;20036;-75
2023/09/10 07:58:03;;;;;;;91.15;46.65;;;;;;;18.37;92.28;101772.16;4893234;29;20036;-71
2023/09/10 08:00:34;;;;;;;88.13;44.72;;;;;;;18.41;91.86;101777.78;4882518;28;20429;-74
2023/09/10 08:03:03;;;;;;;87.47;47.50;;;;;;;18.43;91.21;101772.91;4906825;28;20563;-74
2023/09/10 08:05:30;;;;;;;88.38;44.70;;;;;;;18.44;91.09;101777.22;4902633;28;20516;-71
2023/09/10 08:08:02;;;;;;;89.78;46.95;;;;;;;18.43;90.59;101775.59;4899488;28;20028;-72
2023/09/10 08:10:30;;;;;;;82.57;45.58;;;;;;;18.45;91.00;101773.41;4897276;28;20040;-71
2023/09/10 08:12:56;;;;;;;78.88;43.78;;;;;;;18.46;91.00;101780.44;4906032;28;20047;-73
2023/09/10 08:15:22;;;;;;;76.05;39.78;;;;;;;18.48;90.85;101778.22;4877910;28;20044;-72
2023/09/10 08:17:51;;;;;;;78.90;42.13;;;;;;;18.53;91.21;101770.00;4905652;28;20047;-72
2023/09/10 08:20:17;;;;;;;77.40;43.78;;;;;;;18.55;91.15;101774.00;4867935;28;20048;-75
2023/09/10 08:22:43;;;;;;;75.15;40.30;;;;;;;18.65;91.39;101783.91;4894503;28;20040;-72
2023/09/10 08:25:09;;;;;;;83.30;45.97;;;;;;;18.56;90.73;101785.69;4897137;28;20048;-72
2023/09/10 08:27:36;;;;;;;77.35;41.63;;;;;;;18.60;90.31;101781.25;4890813;28;20401;-75
2023/09/10 08:30:05;;;;;;;80.85;44.97;;;;;;;18.61;90.19;101788.28;4889599;28;20654;-72
2023/09/10 08:32:35;;;;;;;70.68;39.53;;;;;;;18.66;89.88;101777.38;4904704;28;20040;-75
2023/09/10 08:35:01;;;;;;;77.75;43.58;;;;;;;18.68;89.83;101783.31;4891559;28;20042;-74
2023/09/10 08:37:27;;;;;;;80.55;45.30;;;;;;;18.68;89.87;101786.03;4880633;28;20028;-74
2023/09/10 08:39:53;;;;;;;76.15;43.25;;;;;;;18.70;89.75;101785.75;4880810;28;20040;-75
2023/09/10 08:42:30;;;;;;;79.85;45.70;;;;;;;18.67;89.52;101784.41;4900231;28;20048;-74
2023/09/10 08:45:00;;;;;;;73.25;42.10;;;;;;;18.70;89.56;101781.13;4886152;28;20727;-74
2023/09/10 08:47:33;;;;;;;69.43;43.05;;;;;;;18.73;89.11;101785.94;4919484;28;20068;-75
2023/09/10 08:50:06;;;;;;;64.65;38.97;;;;;;;18.80;88.94;101785.56;4905059;28;20044;-71
2023/09/10 08:52:34;;;;;;;71.30;41.72;;;;;;;18.86;88.47;101786.25;4905103;28;20797;-72
2023/09/10 08:55:00;;;;;;;69.30;42.30;;;;;;;18.88;88.52;101786.75;4899443;29;20137;-74
2023/09/10 08:57:30;;;;;;;67.82;42.00;;;;;;;18.90;88.11;101789.97;4900953;28;20107;-72
2023/09/10 08:59:56;;;;;;;72.60;42.55;;;;;;;18.94;88.74;101791.78;4899828;28;20068;-72
2023/09/10 09:02:22;;;;;;;65.72;39.85;;;;;;;18.95;87.83;101795.31;4885237;28;20040;-72
2023/09/10 09:04:47;;;;;;;66.25;40.58;;;;;;;19.01;87.62;101786.78;4916608;28;20044;-72
2023/09/10 09:07:17;;;;;;;72.15;44.10;;;;;;;19.09;87.51;101790.69;4893424;28;20097;-74
2023/09/10 09:09:48;;;;;;;82.00;47.50;;;;;;;19.14;87.51;101787.88;4903243;28;20032;-72
2023/09/10 09:12:15;;;;;;;69.95;43.97;;;;;;;19.16;87.05;101793.81;4902302;28;20036;-70
2023/09/10 09:14:42;;;;;;;77.13;46.13;;;;;;;19.16;87.28;101809.31;4911477;28;20040;-73
2023/09/10 09:17:12;;;;;;;65.25;38.17;;;;;;;19.20;87.86;101797.53;4905569;28;20405;-74
2023/09/10 09:19:44;;;;;;;69.95;40.53;;;;;;;19.21;87.15;101810.00;4903559;29;20530;-72
2023/09/10 09:22:11;;;;;;;73.90;46.95;;;;;;;19.26;87.43;101803.69;4889670;28;20106;-75
2023/09/10 09:24:37;;;;;;;70.93;44.33;;;;;;;19.26;86.47;101800.97;4889917;28;20048;-75
2023/09/10 09:27:03;;;;;;;74.90;44.13;;;;;;;19.25;85.89;101807.50;4904734;28;20046;-72
2023/09/10 09:29:30;;;;;;;62.60;40.25;;;;;;;19.22;85.63;101802.66;4911146;28;20040;-71
2023/09/10 09:31:56;;;;;;;63.97;39.80;;;;;;;19.24;85.46;101801.28;4894611;28;20031;-73
2023/09/10 09:34:21;;;;;;;66.72;40.13;;;;;;;19.16;85.43;101803.88;4888187;28;20040;-72
2023/09/10 09:36:51;;;;;;;62.65;39.80;;;;;;;19.18;85.49;101802.47;4916067;28;20454;-74
2023/09/10 09:39:18;;;;;;;67.72;41.45;;;;;;;19.20;85.42;101800.25;4895791;28;20079;-73
2023/09/10 09:41:52;;;;;;;62.30;37.05;;;;;;;19.30;84.84;101800.03;4873787;29;20093;-72
2023/09/10 09:44:19;;;;;;;58.30;36.17;;;;;;;19.33;84.58;101807.59;4898711;28;20036;-72
2023/09/10 09:46:45;;;;;;;64.97;39.33;;;;;;;19.42;84.14;101796.00;4873218;29;20044;-73
2023/09/10 09:49:11;;;;;;;68.47;43.38;;;;;;;19.45;83.23;101804.38;4889390;28;20052;-73
2023/09/10 09:51:40;;;;;;;61.42;38.90;;;;;;;19.52;83.13;101798.53;4881743;28;20036;-71
2023/09/10 09:54:07;;;;;;;64.68;39.45;;;;;;;19.64;82.77;101798.81;4888287;28;20040;-74
2023/09/10 09:56:33;;;;;;;58.00;36.28;;;;;;;19.68;81.63;101797.13;4918722;28;20040;-74
2023/09/10 09:58:59;;;;;;;55.47;34.20;;;;;;;19.80;81.90;101797.41;4873290;28;20058;-74
2023/09/10 10:01:25;;;;;;;54.13;33.17;;;;;;;19.90;81.50;101807.22;4902693;28;20057;-73
2023/09/10 10:03:52;;;;;;;57.90;37.38;;;;;;;20.02;80.59;101803.97;4905484;29;20094;-74
2023/09/10 10:06:18;;;;;;;54.13;32.88;;;;;;;20.13;80.63;101797.19;4886674;28;20110;-74
2023/09/10 10:08:51;;;;;;;58.35;36.97;;;;;;;20.20;79.34;101799.47;4902581;28;20044;-72
2023/09/10 10:11:27;;;;;;;49.35;30.88;;;;;;;20.25;79.52;101791.97;4901836;28;20139;-74
2023/09/10 10:13:53;;;;;;;52.85;34.83;;;;;;;20.37;77.62;101792.22;4904643;28;20043;-72
2023/09/10 10:16:20;;;;;;;41.90;29.77;;;;;;;20.54;79.24;101782.59;4894774;28;20040;-72
2023/09/10 10:18:46;;;;;;;47.33;30.30;;;;;;;20.67;79.51;101781.72;4887283;28;20493;-73
2023/09/10 10:21:12;;;;;;;47.90;31.52;;;;;;;20.74;76.38;101784.81;4896798;28;20048;-73
2023/09/10 10:23:40;;;;;;;49.33;29.20;;;;;;;20.85;76.77;101767.06;4888449;28;20036;-75
2023/09/10 10:26:06;;;;;;;45.92;29.13;;;;;;;20.95;76.80;101760.53;4882671;28;20040;-72
2023/09/10 10:28:33;;;;;;;44.75;30.23;;;;;;;21.06;75.93;101761.03;4902267;28;20028;-72
2023/09/10 10:31:06;;;;;;;47.03;31.05;;;;;;;21.18;75.85;101775.66;4891356;28;20532;-72
2023/09/10 10:33:36;;;;;;;50.65;33.67;;;;;;;21.25;75.08;101761.59;4923692;28;20111;-72
2023/09/10 10:36:18;;;;;;;50.72;32.70;;;;;;;21.31;74.59;101767.72;4884643;28;20044;-73
2023/09/10 10:38:45;;;;;;;46.65;32.28;;;;;;;21.36;74.11;101765.66;4900661;29;20505;-74
2023/09/10 10:41:19;;;;;;;46.47;30.95;;;;;;;21.45;73.71;101758.28;4896974;29;20046;-74
2023/09/10 10:44:15;;;;;;;48.50;32.65;;;;;;;21.58;74.02;101767.44;4883199;28;20046;-74
2023/09/10 10:46:43;;;;;;;45.70;32.40;;;;;;;21.59;72.96;101757.34;4904171;28;20477;-75
2023/09/10 10:49:09;;;;;;;47.10;32.80;;;;;;;21.60;73.07;101756.22;4915778;28;20032;-74
2023/09/10 10:51:40;;;;;;;42.78;28.65;;;;;;;21.75;74.52;101761.22;4894832;28;20311;-75
2023/09/10 10:54:07;;;;;;;45.05;31.83;;;;;;;21.92;74.64;101757.66;4902889;28;20044;-75
2023/09/10 10:56:34;;;;;;;51.30;36.50;;;;;;;22.05;73.09;101753.97;4871267;29;20086;-73
2023/09/10 10:59:01;;;;;;;47.42;33.55;;;;;;;22.07;72.39;101752.50;4869972;29;20040;-75
2023/09/10 11:01:27;;;;;;;48.35;33.20;;;;;;;22.23;73.61;101752.88;4892003;28;20255;-74
2023/09/10 11:03:53;;;;;;;46.05;30.65;;;;;;;22.31;72.03;101756.69;4900313;29;20040;-73
2023/09/10 11:06:19;;;;;;;41.17;27.75;;;;;;;22.43;71.59;101748.66;4902836;28;20386;-74
2023/09/10 11:08:48;;;;;;;43.70;30.27;;;;;;;22.54;71.79;101738.16;4891228;28;20879;-74
2023/09/10 11:11:38;;;;;;;41.63;30.77;;;;;;;22.61;70.60;101743.91;4885640;28;20040;-73